Sweet Grass, Montana
Current Conditions -  °F | °C
As of 8:56 AM on Thursday 18 Dec 2014 (Local Time) from KCTB Reporting Station
Overcast Overcast  
Wind Chill: 24°   Ceiling: 10000
Heat Index: 32°   Visibility: 10mi
Dew Point: 28°   Wind: 9mph
Humidity: 85%   Direction: 250°WSW
Pressure: 29.85"   Gusts: NA
Location:  48.99°N, 111.96°W
Report Text: KCTB 181556Z AUTO 25008KT 10SM OVC100 00/M02 A2985 RMK AO2 SLP156 T00001022
Loading
Personal Weather Stations






























Interactive Weather Map New forecast layout! Learn more

10-Day Weather Forecast

Advertisements
Track Severe Weather on mobile